sensor_id;sensor_type;location;lat;lon;timestamp;pressure;altitude;pressure_sealevel;temperature;humidity
20710;BME280;10516;51.518;9.864;2023-05-16T00:02:22;98557.75;;;12.61;76.11
20710;BME280;10516;51.518;9.864;2023-05-16T00:04:47;98553.44;;;12.75;75.08
20710;BME280;10516;51.518;9.864;2023-05-16T00:07:12;98565.53;;;12.58;75.72
20710;BME280;10516;51.518;9.864;2023-05-16T00:09:38;98563.38;;;12.25;76.49
20710;BME280;10516;51.518;9.864;2023-05-16T00:12:03;98566.59;;;12.57;75.40
20710;BME280;10516;51.518;9.864;2023-05-16T00:14:28;98570.06;;;12.32;76.20
20710;BME280;10516;51.518;9.864;2023-05-16T00:16:54;98568.44;;;12.21;75.98
20710;BME280;10516;51.518;9.864;2023-05-16T00:19:22;98575.16;;;12.49;75.32
20710;BME280;10516;51.518;9.864;2023-05-16T00:21:47;98569.53;;;12.40;74.83
20710;BME280;10516;51.518;9.864;2023-05-16T00:24:13;98567.63;;;12.11;76.29
20710;BME280;10516;51.518;9.864;2023-05-16T00:26:38;98566.84;;;12.35;75.13
20710;BME280;10516;51.518;9.864;2023-05-16T00:29:03;98575.69;;;12.36;75.45
20710;BME280;10516;51.518;9.864;2023-05-16T00:31:28;98575.41;;;12.32;75.56
20710;BME280;10516;51.518;9.864;2023-05-16T00:33:53;98570.88;;;12.33;75.48
20710;BME280;10516;51.518;9.864;2023-05-16T00:36:19;98578.34;;;12.21;75.99
20710;BME280;10516;51.518;9.864;2023-05-16T00:38:45;98571.09;;;12.06;76.51
20710;BME280;10516;51.518;9.864;2023-05-16T00:41:10;98575.69;;;12.21;76.16
20710;BME280;10516;51.518;9.864;2023-05-16T00:43:35;98582.63;;;11.50;78.87
20710;BME280;10516;51.518;9.864;2023-05-16T00:46:01;98571.38;;;12.10;76.75
20710;BME280;10516;51.518;9.864;2023-05-16T00:48:26;98574.56;;;11.96;77.26
20710;BME280;10516;51.518;9.864;2023-05-16T00:50:52;98576.47;;;12.21;76.08
20710;BME280;10516;51.518;9.864;2023-05-16T00:53:18;98570.34;;;12.41;75.47
20710;BME280;10516;51.518;9.864;2023-05-16T00:55:43;98575.16;;;12.49;75.03
20710;BME280;10516;51.518;9.864;2023-05-16T00:58:09;98581.03;;;12.26;75.34
20710;BME280;10516;51.518;9.864;2023-05-16T01:00:35;98581.56;;;12.28;75.55
20710;BME280;10516;51.518;9.864;2023-05-16T01:03:01;98581.03;;;12.56;74.62
20710;BME280;10516;51.518;9.864;2023-05-16T01:05:28;98580.78;;;12.57;74.22
20710;BME280;10516;51.518;9.864;2023-05-16T01:07:54;98587.16;;;12.11;76.06
20710;BME280;10516;51.518;9.864;2023-05-16T01:10:19;98586.53;;;11.84;77.01
20710;BME280;10516;51.518;9.864;2023-05-16T01:13:08;98588.22;;;12.15;76.05
20710;BME280;10516;51.518;9.864;2023-05-16T01:15:38;98588.75;;;12.17;76.02
20710;BME280;10516;51.518;9.864;2023-05-16T01:18:13;98591.75;;;12.36;75.25
20710;BME280;10516;51.518;9.864;2023-05-16T01:23:16;98609.34;;;12.07;75.29
20710;BME280;10516;51.518;9.864;2023-05-16T01:28:09;98598.69;;;12.37;74.89
20710;BME280;10516;51.518;9.864;2023-05-16T01:30:38;98604.47;;;11.88;76.19
20710;BME280;10516;51.518;9.864;2023-05-16T01:33:04;98608.56;;;12.21;75.49
20710;BME280;10516;51.518;9.864;2023-05-16T01:35:29;98607.78;;;12.21;74.83
20710;BME280;10516;51.518;9.864;2023-05-16T01:38:08;98601.78;;;11.88;76.00
20710;BME280;10516;51.518;9.864;2023-05-16T01:40:37;98607.19;;;11.98;75.90
20710;BME280;10516;51.518;9.864;2023-05-16T01:43:07;98610.47;;;12.21;74.80
20710;BME280;10516;51.518;9.864;2023-05-16T01:45:35;98613.38;;;11.52;76.79
20710;BME280;10516;51.518;9.864;2023-05-16T01:48:21;98613.13;;;12.26;75.20
20710;BME280;10516;51.518;9.864;2023-05-16T01:50:48;98606.47;;;12.33;74.34
20710;BME280;10516;51.518;9.864;2023-05-16T01:53:18;98619.31;;;12.31;74.08
20710;BME280;10516;51.518;9.864;2023-05-16T01:55:46;98623.88;;;12.41;74.15
20710;BME280;10516;51.518;9.864;2023-05-16T01:58:16;98608.59;;;12.16;74.96
20710;BME280;10516;51.518;9.864;2023-05-16T02:00:41;98611.84;;;11.61;75.31
20710;BME280;10516;51.518;9.864;2023-05-16T02:03:07;98611.84;;;11.61;76.62
20710;BME280;10516;51.518;9.864;2023-05-16T02:05:33;98621.59;;;11.87;75.83
20710;BME280;10516;51.518;9.864;2023-05-16T02:07:58;98621.69;;;12.28;74.65
20710;BME280;10516;51.518;9.864;2023-05-16T02:10:24;98621.13;;;12.06;75.27
20710;BME280;10516;51.518;9.864;2023-05-16T02:12:49;98623.81;;;12.16;74.74
20710;BME280;10516;51.518;9.864;2023-05-16T02:15:15;98633.63;;;11.01;77.92
20710;BME280;10516;51.518;9.864;2023-05-16T02:17:41;98633.13;;;11.04;78.98
20710;BME280;10516;51.518;9.864;2023-05-16T02:20:06;98639.84;;;11.12;78.80
20710;BME280;10516;51.518;9.864;2023-05-16T02:22:35;98633.53;;;10.54;80.85
20710;BME280;10516;51.518;9.864;2023-05-16T02:25:01;98630.13;;;10.32;83.31
20710;BME280;10516;51.518;9.864;2023-05-16T02:27:27;98631.72;;;10.33;81.76
20710;BME280;10516;51.518;9.864;2023-05-16T02:29:52;98636.22;;;10.60;81.41
20710;BME280;10516;51.518;9.864;2023-05-16T02:32:17;98640.13;;;9.99;83.39
20710;BME280;10516;51.518;9.864;2023-05-16T02:34:43;98637.94;;;9.52;84.06
20710;BME280;10516;51.518;9.864;2023-05-16T02:37:08;98645.38;;;9.72;85.10
20710;BME280;10516;51.518;9.864;2023-05-16T02:39:33;98642.88;;;9.44;86.92
20710;BME280;10516;51.518;9.864;2023-05-16T02:41:58;98644.66;;;9.17;86.99
20710;BME280;10516;51.518;9.864;2023-05-16T02:44:24;98643.41;;;9.24;86.42
20710;BME280;10516;51.518;9.864;2023-05-16T02:46:49;98640.88;;;9.72;86.45
20710;BME280;10516;51.518;9.864;2023-05-16T02:49:14;98643.84;;;10.19;84.31
20710;BME280;10516;51.518;9.864;2023-05-16T02:51:39;98641.00;;;10.52;81.08
20710;BME280;10516;51.518;9.864;2023-05-16T02:54:05;98651.13;;;9.42;86.82
20710;BME280;10516;51.518;9.864;2023-05-16T02:56:33;98647.81;;;9.95;85.82
20710;BME280;10516;51.518;9.864;2023-05-16T02:58:58;98644.06;;;10.13;83.86
20710;BME280;10516;51.518;9.864;2023-05-16T03:01:24;98643.50;;;10.11;83.99
20710;BME280;10516;51.518;9.864;2023-05-16T03:03:49;98641.00;;;10.26;83.50
20710;BME280;10516;51.518;9.864;2023-05-16T03:06:15;98644.16;;;10.23;82.45
20710;BME280;10516;51.518;9.864;2023-05-16T03:08:40;98644.50;;;9.45;85.27
20710;BME280;10516;51.518;9.864;2023-05-16T03:11:05;98652.84;;;9.32;87.93
20710;BME280;10516;51.518;9.864;2023-05-16T03:13:30;98648.44;;;9.21;86.34
20710;BME280;10516;51.518;9.864;2023-05-16T03:15:57;98656.00;;;8.95;87.28
20710;BME280;10516;51.518;9.864;2023-05-16T03:18:22;98656.63;;;9.36;86.28
20710;BME280;10516;51.518;9.864;2023-05-16T03:20:47;98657.72;;;8.85;87.48
20710;BME280;10516;51.518;9.864;2023-05-16T03:23:12;98652.56;;;8.95;87.90
20710;BME280;10516;51.518;9.864;2023-05-16T03:25:37;98658.69;;;8.79;87.46
20710;BME280;10516;51.518;9.864;2023-05-16T03:28:06;98660.88;;;8.82;87.75
20710;BME280;10516;51.518;9.864;2023-05-16T03:30:32;98664.69;;;9.41;86.14
20710;BME280;10516;51.518;9.864;2023-05-16T03:32:57;98670.66;;;9.48;85.15
20710;BME280;10516;51.518;9.864;2023-05-16T03:35:22;98668.09;;;9.36;84.57
20710;BME280;10516;51.518;9.864;2023-05-16T03:37:48;98678.03;;;8.74;86.87
20710;BME280;10516;51.518;9.864;2023-05-16T03:40:13;98689.50;;;9.25;85.53
20710;BME280;10516;51.518;9.864;2023-05-16T03:42:39;98690.31;;;9.85;83.58
20710;BME280;10516;51.518;9.864;2023-05-16T03:45:04;98690.69;;;9.34;84.16
20710;BME280;10516;51.518;9.864;2023-05-16T03:47:30;98689.84;;;9.66;84.56
20710;BME280;10516;51.518;9.864;2023-05-16T03:49:55;98697.84;;;10.10;82.36
20710;BME280;10516;51.518;9.864;2023-05-16T03:52:21;98689.97;;;10.41;81.48
20710;BME280;10516;51.518;9.864;2023-05-16T03:54:47;98701.56;;;9.87;82.49
20710;BME280;10516;51.518;9.864;2023-05-16T03:57:12;98698.03;;;10.03;81.83
20710;BME280;10516;51.518;9.864;2023-05-16T03:59:37;98697.25;;;9.64;82.97
20710;BME280;10516;51.518;9.864;2023-05-16T04:02:03;98698.09;;;9.48;83.95
20710;BME280;10516;51.518;9.864;2023-05-16T04:04:28;98707.31;;;9.79;83.66
20710;BME280;10516;51.518;9.864;2023-05-16T04:06:53;98697.72;;;10.70;80.82
20710;BME280;10516;51.518;9.864;2023-05-16T04:09:18;98700.69;;;10.73;80.39
20710;BME280;10516;51.518;9.864;2023-05-16T04:11:44;98700.34;;;11.28;77.96
20710;BME280;10516;51.518;9.864;2023-05-16T04:14:09;98705.34;;;11.56;77.20
20710;BME280;10516;51.518;9.864;2023-05-16T04:16:35;98709.31;;;11.12;77.93
20710;BME280;10516;51.518;9.864;2023-05-16T04:19:00;98713.16;;;11.26;78.26
20710;BME280;10516;51.518;9.864;2023-05-16T04:21:26;98713.63;;;10.60;79.36
20710;BME280;10516;51.518;9.864;2023-05-16T04:23:51;98717.03;;;10.28;81.44
20710;BME280;10516;51.518;9.864;2023-05-16T04:26:16;98722.38;;;9.68;85.18
20710;BME280;10516;51.518;9.864;2023-05-16T04:28:42;98711.41;;;11.05;79.58
20710;BME280;10516;51.518;9.864;2023-05-16T04:31:07;98716.78;;;11.47;77.50
20710;BME280;10516;51.518;9.864;2023-05-16T04:33:32;98719.00;;;11.55;76.86
20710;BME280;10516;51.518;9.864;2023-05-16T04:35:58;98718.94;;;11.50;77.33
20710;BME280;10516;51.518;9.864;2023-05-16T04:38:24;98720.03;;;11.17;78.16
20710;BME280;10516;51.518;9.864;2023-05-16T04:40:49;98726.91;;;11.08;77.96
20710;BME280;10516;51.518;9.864;2023-05-16T04:43:15;98724.56;;;11.53;77.22
20710;BME280;10516;51.518;9.864;2023-05-16T04:45:41;98735.78;;;11.13;78.35
20710;BME280;10516;51.518;9.864;2023-05-16T04:48:07;98743.84;;;11.55;77.24
20710;BME280;10516;51.518;9.864;2023-05-16T04:50:32;98731.50;;;11.49;76.48
20710;BME280;10516;51.518;9.864;2023-05-16T04:52:57;98743.59;;;10.67;78.98
20710;BME280;10516;51.518;9.864;2023-05-16T04:55:22;98742.50;;;10.63;80.58
20710;BME280;10516;51.518;9.864;2023-05-16T04:57:48;98749.91;;;9.74;83.33
20710;BME280;10516;51.518;9.864;2023-05-16T05:00:14;98748.91;;;10.18;82.46
20710;BME280;10516;51.518;9.864;2023-05-16T05:02:40;98752.09;;;9.44;84.13
20710;BME280;10516;51.518;9.864;2023-05-16T05:05:05;98750.09;;;9.51;84.07
20710;BME280;10516;51.518;9.864;2023-05-16T05:07:31;98763.19;;;9.91;83.36
20710;BME280;10516;51.518;9.864;2023-05-16T05:09:57;98765.44;;;10.15;82.71
20710;BME280;10516;51.518;9.864;2023-05-16T05:12:22;98761.19;;;10.89;79.82
20710;BME280;10516;51.518;9.864;2023-05-16T05:14:47;98775.16;;;10.48;78.13
20710;BME280;10516;51.518;9.864;2023-05-16T05:17:12;98771.00;;;10.35;80.01
20710;BME280;10516;51.518;9.864;2023-05-16T05:19:38;98775.56;;;10.83;78.46
20710;BME280;10516;51.518;9.864;2023-05-16T05:22:03;98772.25;;;10.49;78.98
20710;BME280;10516;51.518;9.864;2023-05-16T05:24:28;98779.09;;;9.86;80.06
20710;BME280;10516;51.518;9.864;2023-05-16T05:26:53;98777.03;;;10.47;80.12
20710;BME280;10516;51.518;9.864;2023-05-16T05:29:19;98781.66;;;10.14;79.39
20710;BME280;10516;51.518;9.864;2023-05-16T05:31:44;98778.84;;;10.69;78.77
20710;BME280;10516;51.518;9.864;2023-05-16T05:34:09;98776.41;;;9.47;80.64
20710;BME280;10516;51.518;9.864;2023-05-16T05:36:35;98782.31;;;9.49;80.98
20710;BME280;10516;51.518;9.864;2023-05-16T05:39:00;98790.94;;;10.11;81.19
20710;BME280;10516;51.518;9.864;2023-05-16T05:41:25;98791.81;;;10.82;78.87
20710;BME280;10516;51.518;9.864;2023-05-16T05:43:51;98791.16;;;10.70;78.23
20710;BME280;10516;51.518;9.864;2023-05-16T05:46:16;98787.72;;;11.01;77.70
20710;BME280;10516;51.518;9.864;2023-05-16T05:48:41;98800.22;;;10.69;78.71
20710;BME280;10516;51.518;9.864;2023-05-16T05:51:07;98788.34;;;11.08;77.04
20710;BME280;10516;51.518;9.864;2023-05-16T05:53:32;98799.22;;;11.01;77.32
20710;BME280;10516;51.518;9.864;2023-05-16T05:55:58;98805.97;;;10.82;77.51
20710;BME280;10516;51.518;9.864;2023-05-16T05:58:23;98807.97;;;10.97;77.90
20710;BME280;10516;51.518;9.864;2023-05-16T06:00:48;98806.72;;;11.31;75.50
20710;BME280;10516;51.518;9.864;2023-05-16T06:03:14;98817.22;;;11.43;75.59
20710;BME280;10516;51.518;9.864;2023-05-16T06:05:39;98819.47;;;11.56;74.85
20710;BME280;10516;51.518;9.864;2023-05-16T06:08:05;98816.41;;;11.37;75.53
20710;BME280;10516;51.518;9.864;2023-05-16T06:10:30;98816.31;;;11.59;74.69
20710;BME280;10516;51.518;9.864;2023-05-16T06:12:55;98821.09;;;10.98;74.83
20710;BME280;10516;51.518;9.864;2023-05-16T06:15:21;98826.47;;;10.77;76.34
20710;BME280;10516;51.518;9.864;2023-05-16T06:17:46;98823.38;;;10.63;76.34
20710;BME280;10516;51.518;9.864;2023-05-16T06:20:11;98835.72;;;10.47;76.88
20710;BME280;10516;51.518;9.864;2023-05-16T06:22:36;98841.03;;;10.09;77.36
20710;BME280;10516;51.518;9.864;2023-05-16T06:25:02;98843.22;;;10.94;76.09
20710;BME280;10516;51.518;9.864;2023-05-16T06:27:27;98843.25;;;10.99;75.56
20710;BME280;10516;51.518;9.864;2023-05-16T06:29:53;98842.03;;;10.85;75.40
20710;BME280;10516;51.518;9.864;2023-05-16T06:32:18;98847.56;;;10.35;76.85
20710;BME280;10516;51.518;9.864;2023-05-16T06:34:43;98850.38;;;10.67;77.52
20710;BME280;10516;51.518;9.864;2023-05-16T06:37:08;98853.00;;;11.10;75.66
20710;BME280;10516;51.518;9.864;2023-05-16T06:39:34;98855.31;;;11.01;75.65
20710;BME280;10516;51.518;9.864;2023-05-16T06:42:00;98857.25;;;11.32;73.74
20710;BME280;10516;51.518;9.864;2023-05-16T06:44:25;98861.81;;;11.10;73.39
20710;BME280;10516;51.518;9.864;2023-05-16T06:46:51;98868.41;;;11.29;73.87
20710;BME280;10516;51.518;9.864;2023-05-16T06:49:16;98868.97;;;11.58;73.46
20710;BME280;10516;51.518;9.864;2023-05-16T06:51:42;98867.69;;;11.66;73.25
20710;BME280;10516;51.518;9.864;2023-05-16T06:54:07;98878.88;;;11.89;72.15
20710;BME280;10516;51.518;9.864;2023-05-16T06:56:33;98878.34;;;11.87;71.82
20710;BME280;10516;51.518;9.864;2023-05-16T06:58:58;98872.81;;;11.99;71.17
20710;BME280;10516;51.518;9.864;2023-05-16T07:01:25;98881.13;;;12.02;71.07
20710;BME280;10516;51.518;9.864;2023-05-16T07:03:51;98883.31;;;12.11;71.07
20710;BME280;10516;51.518;9.864;2023-05-16T07:06:16;98888.78;;;11.89;72.20
20710;BME280;10516;51.518;9.864;2023-05-16T07:08:41;98894.13;;;11.62;72.45
20710;BME280;10516;51.518;9.864;2023-05-16T07:11:06;98886.66;;;11.64;72.72
20710;BME280;10516;51.518;9.864;2023-05-16T07:13:32;98900.31;;;11.14;72.55
20710;BME280;10516;51.518;9.864;2023-05-16T07:15:57;98892.97;;;11.53;73.02
20710;BME280;10516;51.518;9.864;2023-05-16T07:18:22;98896.13;;;11.72;72.32
20710;BME280;10516;51.518;9.864;2023-05-16T07:20:48;98885.91;;;11.69;71.78
20710;BME280;10516;51.518;9.864;2023-05-16T07:23:13;98897.56;;;11.84;71.69
20710;BME280;10516;51.518;9.864;2023-05-16T07:25:38;98897.31;;;11.86;71.79
20710;BME280;10516;51.518;9.864;2023-05-16T07:28:03;98899.19;;;11.85;71.32
20710;BME280;10516;51.518;9.864;2023-05-16T07:30:29;98896.78;;;11.62;72.27
20710;BME280;10516;51.518;9.864;2023-05-16T07:32:54;98895.59;;;11.48;71.83
20710;BME280;10516;51.518;9.864;2023-05-16T07:35:19;98899.84;;;11.71;71.35
20710;BME280;10516;51.518;9.864;2023-05-16T07:37:45;98895.84;;;11.47;71.26
20710;BME280;10516;51.518;9.864;2023-05-16T07:40:10;98900.81;;;11.60;71.27
20710;BME280;10516;51.518;9.864;2023-05-16T07:42:35;98905.06;;;11.34;71.24
20710;BME280;10516;51.518;9.864;2023-05-16T07:45:01;98909.66;;;11.39;70.63
20710;BME280;10516;51.518;9.864;2023-05-16T07:47:26;98913.03;;;11.56;70.70
20710;BME280;10516;51.518;9.864;2023-05-16T07:49:52;98915.66;;;11.72;69.92
20710;BME280;10516;51.518;9.864;2023-05-16T07:52:17;98917.31;;;11.30;70.07
20710;BME280;10516;51.518;9.864;2023-05-16T07:54:42;98922.22;;;11.65;69.60
20710;BME280;10516;51.518;9.864;2023-05-16T07:57:07;98931.81;;;11.12;71.45
20710;BME280;10516;51.518;9.864;2023-05-16T07:59:33;98933.88;;;11.54;70.23
20710;BME280;10516;51.518;9.864;2023-05-16T08:01:58;98934.69;;;10.84;69.31
20710;BME280;10516;51.518;9.864;2023-05-16T08:04:23;98933.22;;;11.42;70.36
20710;BME280;10516;51.518;9.864;2023-05-16T08:06:49;98939.19;;;11.49;69.71
20710;BME280;10516;51.518;9.864;2023-05-16T08:09:14;98935.50;;;11.55;68.93
20710;BME280;10516;51.518;9.864;2023-05-16T08:11:39;98935.25;;;11.56;68.38
20710;BME280;10516;51.518;9.864;2023-05-16T08:14:05;98938.53;;;11.63;69.48
20710;BME280;10516;51.518;9.864;2023-05-16T08:16:30;98930.41;;;11.80;68.58
20710;BME280;10516;51.518;9.864;2023-05-16T08:18:55;98934.22;;;11.62;68.05
20710;BME280;10516;51.518;9.864;2023-05-16T08:21:21;98945.56;;;11.69;68.39
20710;BME280;10516;51.518;9.864;2023-05-16T08:23:46;98944.84;;;12.06;68.31
20710;BME280;10516;51.518;9.864;2023-05-16T08:26:11;98949.44;;;11.83;67.69
20710;BME280;10516;51.518;9.864;2023-05-16T08:28:36;98953.91;;;12.41;66.62
20710;BME280;10516;51.518;9.864;2023-05-16T08:31:02;98946.84;;;12.67;65.71
20710;BME280;10516;51.518;9.864;2023-05-16T08:33:27;98946.78;;;12.57;65.00
20710;BME280;10516;51.518;9.864;2023-05-16T08:35:52;98949.84;;;12.34;64.17
20710;BME280;10516;51.518;9.864;2023-05-16T08:38:18;98948.97;;;12.65;64.73
20710;BME280;10516;51.518;9.864;2023-05-16T08:40:43;98950.41;;;12.41;65.18
20710;BME280;10516;51.518;9.864;2023-05-16T08:43:09;98954.72;;;12.42;64.13
20710;BME280;10516;51.518;9.864;2023-05-16T08:45:34;98951.97;;;12.73;63.51
20710;BME280;10516;51.518;9.864;2023-05-16T08:48:00;98954.41;;;12.75;63.05
20710;BME280;10516;51.518;9.864;2023-05-16T08:50:27;98959.59;;;12.50;63.00
20710;BME280;10516;51.518;9.864;2023-05-16T08:52:55;98954.28;;;12.55;62.89
20710;BME280;10516;51.518;9.864;2023-05-16T08:55:20;98957.22;;;12.58;62.80
20710;BME280;10516;51.518;9.864;2023-05-16T08:57:48;98960.59;;;12.39;63.65
20710;BME280;10516;51.518;9.864;2023-05-16T09:00:13;98951.56;;;12.50;63.37
20710;BME280;10516;51.518;9.864;2023-05-16T09:02:40;98963.31;;;12.44;63.30
20710;BME280;10516;51.518;9.864;2023-05-16T09:05:06;98962.81;;;12.52;63.01
20710;BME280;10516;51.518;9.864;2023-05-16T09:07:32;98963.25;;;12.34;62.97
20710;BME280;10516;51.518;9.864;2023-05-16T09:09:57;98965.06;;;12.28;62.68
20710;BME280;10516;51.518;9.864;2023-05-16T09:12:22;98967.03;;;12.43;62.59
20710;BME280;10516;51.518;9.864;2023-05-16T09:14:48;98957.22;;;12.58;62.36
20710;BME280;10516;51.518;9.864;2023-05-16T09:17:13;98957.53;;;12.67;62.17
20710;BME280;10516;51.518;9.864;2023-05-16T09:19:43;98971.94;;;12.56;62.29
20710;BME280;10516;51.518;9.864;2023-05-16T09:22:11;98965.91;;;12.75;61.24
20710;BME280;10516;51.518;9.864;2023-05-16T09:24:41;98973.00;;;11.86;60.37
20710;BME280;10516;51.518;9.864;2023-05-16T09:27:13;98962.09;;;12.61;62.58
20710;BME280;10516;51.518;9.864;2023-05-16T09:29:42;98970.38;;;12.60;60.95
20710;BME280;10516;51.518;9.864;2023-05-16T09:32:14;98967.03;;;12.43;59.75
20710;BME280;10516;51.518;9.864;2023-05-16T09:34:43;98968.34;;;12.77;60.60
20710;BME280;10516;51.518;9.864;2023-05-16T09:37:12;98966.69;;;12.71;61.39
20710;BME280;10516;51.518;9.864;2023-05-16T09:39:39;98970.88;;;12.57;60.99
20710;BME280;10516;51.518;9.864;2023-05-16T09:42:05;98965.41;;;12.78;60.56
20710;BME280;10516;51.518;9.864;2023-05-16T09:44:31;98970.53;;;12.85;59.69
20710;BME280;10516;51.518;9.864;2023-05-16T09:46:56;98966.56;;;12.93;59.75
20710;BME280;10516;51.518;9.864;2023-05-16T09:49:21;98975.88;;;12.85;59.92
20710;BME280;10516;51.518;9.864;2023-05-16T09:51:48;98970.31;;;12.97;59.82
20710;BME280;10516;51.518;9.864;2023-05-16T09:54:13;98959.28;;;12.93;59.02
20710;BME280;10516;51.518;9.864;2023-05-16T09:56:49;98958.38;;;13.14;59.14
20710;BME280;10516;51.518;9.864;2023-05-16T09:59:14;98965.53;;;13.04;58.52
20710;BME280;10516;51.518;9.864;2023-05-16T10:01:40;98955.25;;;12.86;57.69
20710;BME280;10516;51.518;9.864;2023-05-16T10:04:06;98967.78;;;12.33;57.43
20710;BME280;10516;51.518;9.864;2023-05-16T10:06:34;98955.88;;;13.03;58.03
20710;BME280;10516;51.518;9.864;2023-05-16T10:09:00;98957.47;;;12.99;59.26
20710;BME280;10516;51.518;9.864;2023-05-16T10:11:25;98949.84;;;13.27;56.52
20710;BME280;10516;51.518;9.864;2023-05-16T10:13:51;98947.59;;;12.62;55.59
20710;BME280;10516;51.518;9.864;2023-05-16T10:16:17;98945.59;;;13.36;57.92
20710;BME280;10516;51.518;9.864;2023-05-16T10:18:42;98958.50;;;13.54;57.40
20710;BME280;10516;51.518;9.864;2023-05-16T10:21:09;98949.06;;;13.37;55.96
20710;BME280;10516;51.518;9.864;2023-05-16T10:23:39;98951.53;;;13.59;56.98
20710;BME280;10516;51.518;9.864;2023-05-16T10:26:05;98953.97;;;13.60;54.60
20710;BME280;10516;51.518;9.864;2023-05-16T10:28:31;98960.63;;;13.47;57.07
20710;BME280;10516;51.518;9.864;2023-05-16T10:30:56;98959.38;;;13.03;55.42
20710;BME280;10516;51.518;9.864;2023-05-16T10:33:23;98965.22;;;13.72;56.57
20710;BME280;10516;51.518;9.864;2023-05-16T10:35:48;98962.53;;;13.62;56.46
20710;BME280;10516;51.518;9.864;2023-05-16T10:38:15;98977.28;;;13.70;55.15
20710;BME280;10516;51.518;9.864;2023-05-16T10:40:41;98968.16;;;13.66;56.15
20710;BME280;10516;51.518;9.864;2023-05-16T10:43:07;98969.00;;;13.71;55.77
20710;BME280;10516;51.518;9.864;2023-05-16T10:45:33;98967.59;;;13.59;55.64
20710;BME280;10516;51.518;9.864;2023-05-16T10:48:03;98965.50;;;13.61;54.97
20710;BME280;10516;51.518;9.864;2023-05-16T10:50:32;98959.09;;;13.87;51.65
20710;BME280;10516;51.518;9.864;2023-05-16T10:55:38;98971.97;;;14.20;53.80
20710;BME280;10516;51.518;9.864;2023-05-16T10:58:04;98973.06;;;14.09;54.26
20710;BME280;10516;51.518;9.864;2023-05-16T11:00:29;98981.66;;;14.01;54.41
20710;BME280;10516;51.518;9.864;2023-05-16T11:03:03;98986.22;;;14.05;53.61
20710;BME280;10516;51.518;9.864;2023-05-16T11:05:28;98980.31;;;14.13;53.94
20710;BME280;10516;51.518;9.864;2023-05-16T11:08:06;98984.34;;;14.06;54.95
20710;BME280;10516;51.518;9.864;2023-05-16T11:10:32;98973.34;;;14.17;54.42
20710;BME280;10516;51.518;9.864;2023-05-16T11:13:01;98985.97;;;14.42;52.75
20710;BME280;10516;51.518;9.864;2023-05-16T11:15:30;98982.13;;;13.73;50.41
20710;BME280;10516;51.518;9.864;2023-05-16T11:18:06;98984.84;;;13.98;53.37
20710;BME280;10516;51.518;9.864;2023-05-16T11:20:33;98979.50;;;14.18;52.08
20710;BME280;10516;51.518;9.864;2023-05-16T11:23:17;98972.81;;;14.41;51.74
20710;BME280;10516;51.518;9.864;2023-05-16T11:25:46;98967.97;;;14.58;51.43
20710;BME280;10516;51.518;9.864;2023-05-16T11:28:12;98968.47;;;14.85;51.54
20710;BME280;10516;51.518;9.864;2023-05-16T11:30:42;98976.28;;;14.71;51.19
20710;BME280;10516;51.518;9.864;2023-05-16T11:33:07;98987.00;;;14.81;51.24
20710;BME280;10516;51.518;9.864;2023-05-16T11:35:33;98972.75;;;14.86;51.94
20710;BME280;10516;51.518;9.864;2023-05-16T11:37:58;98958.47;;;14.95;50.01
20710;BME280;10516;51.518;9.864;2023-05-16T11:40:25;98971.41;;;14.88;50.46
20710;BME280;10516;51.518;9.864;2023-05-16T11:42:50;98983.97;;;15.08;50.14
20710;BME280;10516;51.518;9.864;2023-05-16T11:45:16;98965.41;;;15.12;50.50
20710;BME280;10516;51.518;9.864;2023-05-16T11:47:42;98975.59;;;15.20;49.88
20710;BME280;10516;51.518;9.864;2023-05-16T11:50:15;98974.44;;;15.36;49.98
20710;BME280;10516;51.518;9.864;2023-05-16T11:52:50;98969.13;;;15.26;51.06
20710;BME280;10516;51.518;9.864;2023-05-16T11:55:18;98974.56;;;15.16;50.26
20710;BME280;10516;51.518;9.864;2023-05-16T11:57:44;98968.53;;;15.34;50.41
20710;BME280;10516;51.518;9.864;2023-05-16T12:02:38;98966.59;;;14.80;50.94
20710;BME280;10516;51.518;9.864;2023-05-16T12:05:07;98973.03;;;14.84;50.41
20710;BME280;10516;51.518;9.864;2023-05-16T12:07:33;98979.47;;;14.88;52.34
20710;BME280;10516;51.518;9.864;2023-05-16T12:09:59;98980.50;;;14.97;50.69
20710;BME280;10516;51.518;9.864;2023-05-16T12:12:28;98974.84;;;15.04;48.60
20710;BME280;10516;51.518;9.864;2023-05-16T12:14:53;98975.09;;;15.13;48.86
20710;BME280;10516;51.518;9.864;2023-05-16T12:17:19;98970.63;;;15.52;48.42
20710;BME280;10516;51.518;9.864;2023-05-16T12:19:46;98969.56;;;15.53;48.39
20710;BME280;10516;51.518;9.864;2023-05-16T12:22:15;98970.44;;;15.87;48.24
20710;BME280;10516;51.518;9.864;2023-05-16T12:24:41;98960.75;;;16.20;47.33
20710;BME280;10516;51.518;9.864;2023-05-16T12:27:07;98967.38;;;16.32;46.33
20710;BME280;10516;51.518;9.864;2023-05-16T12:29:32;98957.28;;;16.53;47.08
20710;BME280;10516;51.518;9.864;2023-05-16T12:31:57;98960.06;;;16.67;47.59
20710;BME280;10516;51.518;9.864;2023-05-16T12:34:27;98961.56;;;16.49;46.88
20710;BME280;10516;51.518;9.864;2023-05-16T12:36:52;98980.22;;;16.40;46.90
20710;BME280;10516;51.518;9.864;2023-05-16T12:39:18;98973.03;;;15.97;48.60
20710;BME280;10516;51.518;9.864;2023-05-16T12:41:44;98975.22;;;15.95;48.77
20710;BME280;10516;51.518;9.864;2023-05-16T12:44:10;98984.31;;;16.04;47.71
20710;BME280;10516;51.518;9.864;2023-05-16T12:46:39;98982.72;;;16.32;45.86
20710;BME280;10516;51.518;9.864;2023-05-16T12:49:05;98972.63;;;16.47;43.89
20710;BME280;10516;51.518;9.864;2023-05-16T12:51:30;98973.50;;;16.72;43.84
20710;BME280;10516;51.518;9.864;2023-05-16T12:53:56;98973.66;;;17.09;44.43
20710;BME280;10516;51.518;9.864;2023-05-16T12:56:21;98970.81;;;17.43;42.30
20710;BME280;10516;51.518;9.864;2023-05-16T12:58:49;98972.22;;;17.16;42.87
20710;BME280;10516;51.518;9.864;2023-05-16T13:01:15;98969.09;;;16.57;43.91
20710;BME280;10516;51.518;9.864;2023-05-16T13:03:40;98973.09;;;17.54;44.42
20710;BME280;10516;51.518;9.864;2023-05-16T13:06:05;98978.47;;;17.36;43.11
20710;BME280;10516;51.518;9.864;2023-05-16T13:08:31;98982.38;;;17.01;42.89